Terminal Aerodrome Forecast
Issued by NWS

Home | Current Version | Previous Version | Text Only | Print | Product List | Glossary On
Versions: 1 2 3 4 5 6 7 8 9 10 11 12 13 14 15 16 17 18
309
FTUS42 TJSJ 050525
TAFJPS
TAF
TJPS 050525Z 0506/0606 05005KT P6SM VCSH FEW020 SCT070
      TEMPO 0506/0508 SHRA SCT020 BKN040
     FM051500 13012KT P6SM FEW030 SCT060
     FM052330 05005KT P6SM FEW030
      AMD NOT SKED 0512/0603=

USA.gov is the U.S. government's official web portal to all federal, state and local government web resources and services.